sensor_id;sensor_type;location;lat;lon;timestamp;temperature;humidity
37974;DHT22;23796;51.458;7.000;2023-10-08T00:00:52;18.40;89.00
37974;DHT22;23796;51.458;7.000;2023-10-08T00:03:24;18.40;88.90
37974;DHT22;23796;51.458;7.000;2023-10-08T00:05:54;18.40;88.80
37974;DHT22;23796;51.458;7.000;2023-10-08T00:08:20;18.40;88.90
37974;DHT22;23796;51.458;7.000;2023-10-08T00:10:48;18.40;88.80
37974;DHT22;23796;51.458;7.000;2023-10-08T00:13:15;18.40;88.80
37974;DHT22;23796;51.458;7.000;2023-10-08T00:15:44;18.50;88.70
37974;DHT22;23796;51.458;7.000;2023-10-08T00:18:20;18.50;88.70
37974;DHT22;23796;51.458;7.000;2023-10-08T00:20:47;18.40;88.60
37974;DHT22;23796;51.458;7.000;2023-10-08T00:23:32;18.40;88.60
37974;DHT22;23796;51.458;7.000;2023-10-08T00:26:01;18.40;88.60
37974;DHT22;23796;51.458;7.000;2023-10-08T00:28:32;18.40;88.50
37974;DHT22;23796;51.458;7.000;2023-10-08T00:31:03;18.40;88.60
37974;DHT22;23796;51.458;7.000;2023-10-08T00:33:38;18.40;88.70
37974;DHT22;23796;51.458;7.000;2023-10-08T00:36:05;18.40;88.70
37974;DHT22;23796;51.458;7.000;2023-10-08T00:38:45;18.40;88.70
37974;DHT22;23796;51.458;7.000;2023-10-08T00:41:14;18.40;88.50
37974;DHT22;23796;51.458;7.000;2023-10-08T00:43:49;18.40;88.50
37974;DHT22;23796;51.458;7.000;2023-10-08T00:46:20;18.40;88.40
37974;DHT22;23796;51.458;7.000;2023-10-08T00:48:52;18.30;88.40
37974;DHT22;23796;51.458;7.000;2023-10-08T00:51:22;18.30;88.50
37974;DHT22;23796;51.458;7.000;2023-10-08T00:56:18;18.30;88.50
37974;DHT22;23796;51.458;7.000;2023-10-08T00:58:45;18.20;88.60
37974;DHT22;23796;51.458;7.000;2023-10-08T01:01:18;18.20;88.60
37974;DHT22;23796;51.458;7.000;2023-10-08T01:03:46;18.20;88.60
37974;DHT22;23796;51.458;7.000;2023-10-08T01:06:16;18.20;89.00
37974;DHT22;23796;51.458;7.000;2023-10-08T01:08:49;18.10;89.10
37974;DHT22;23796;51.458;7.000;2023-10-08T01:11:23;18.10;89.50
37974;DHT22;23796;51.458;7.000;2023-10-08T01:14:09;18.10;89.50
37974;DHT22;23796;51.458;7.000;2023-10-08T01:16:35;18.10;89.50
37974;DHT22;23796;51.458;7.000;2023-10-08T01:19:00;18.00;89.60
37974;DHT22;23796;51.458;7.000;2023-10-08T01:21:32;18.00;89.60
37974;DHT22;23796;51.458;7.000;2023-10-08T01:24:03;18.00;89.50
37974;DHT22;23796;51.458;7.000;2023-10-08T01:26:35;17.90;89.50
37974;DHT22;23796;51.458;7.000;2023-10-08T01:29:04;17.90;89.60
37974;DHT22;23796;51.458;7.000;2023-10-08T01:31:32;17.90;89.70
37974;DHT22;23796;51.458;7.000;2023-10-08T01:33:58;17.90;89.60
37974;DHT22;23796;51.458;7.000;2023-10-08T01:36:26;17.90;89.50
37974;DHT22;23796;51.458;7.000;2023-10-08T01:38:53;17.90;89.60
37974;DHT22;23796;51.458;7.000;2023-10-08T01:41:20;17.90;89.60
37974;DHT22;23796;51.458;7.000;2023-10-08T01:43:54;18.00;89.40
37974;DHT22;23796;51.458;7.000;2023-10-08T01:46:19;18.00;89.30
37974;DHT22;23796;51.458;7.000;2023-10-08T01:48:47;18.00;89.00
37974;DHT22;23796;51.458;7.000;2023-10-08T01:51:18;18.00;89.00
37974;DHT22;23796;51.458;7.000;2023-10-08T01:53:54;18.10;89.00
37974;DHT22;23796;51.458;7.000;2023-10-08T01:56:21;18.10;88.80
37974;DHT22;23796;51.458;7.000;2023-10-08T01:58:49;18.10;88.80
37974;DHT22;23796;51.458;7.000;2023-10-08T02:01:20;18.00;88.90
37974;DHT22;23796;51.458;7.000;2023-10-08T02:03:45;18.00;89.00
37974;DHT22;23796;51.458;7.000;2023-10-08T02:06:11;17.90;89.10
37974;DHT22;23796;51.458;7.000;2023-10-08T02:08:38;17.90;89.30
37974;DHT22;23796;51.458;7.000;2023-10-08T02:11:09;17.90;89.30
37974;DHT22;23796;51.458;7.000;2023-10-08T02:13:35;17.90;89.30
37974;DHT22;23796;51.458;7.000;2023-10-08T02:16:02;17.90;89.30
37974;DHT22;23796;51.458;7.000;2023-10-08T02:18:30;17.80;89.40
37974;DHT22;23796;51.458;7.000;2023-10-08T02:20:56;17.80;89.50
37974;DHT22;23796;51.458;7.000;2023-10-08T02:23:24;17.80;89.50
37974;DHT22;23796;51.458;7.000;2023-10-08T02:25:50;17.80;89.40
37974;DHT22;23796;51.458;7.000;2023-10-08T02:28:17;17.80;89.30
37974;DHT22;23796;51.458;7.000;2023-10-08T02:30:45;17.80;89.30
37974;DHT22;23796;51.458;7.000;2023-10-08T02:33:11;17.80;89.40
37974;DHT22;23796;51.458;7.000;2023-10-08T02:35:44;17.80;89.30
37974;DHT22;23796;51.458;7.000;2023-10-08T02:38:15;17.80;89.50
37974;DHT22;23796;51.458;7.000;2023-10-08T02:40:46;17.70;89.60
37974;DHT22;23796;51.458;7.000;2023-10-08T02:43:13;17.70;89.80
37974;DHT22;23796;51.458;7.000;2023-10-08T02:45:43;17.60;90.20
37974;DHT22;23796;51.458;7.000;2023-10-08T02:48:12;17.50;90.80
37974;DHT22;23796;51.458;7.000;2023-10-08T02:50:42;17.50;90.80
37974;DHT22;23796;51.458;7.000;2023-10-08T02:53:09;17.50;90.70
37974;DHT22;23796;51.458;7.000;2023-10-08T02:55:41;17.50;90.50
37974;DHT22;23796;51.458;7.000;2023-10-08T02:58:10;17.50;90.40
37974;DHT22;23796;51.458;7.000;2023-10-08T03:00:41;17.50;90.50
37974;DHT22;23796;51.458;7.000;2023-10-08T03:03:07;17.40;90.90
37974;DHT22;23796;51.458;7.000;2023-10-08T03:05:53;17.40;91.10
37974;DHT22;23796;51.458;7.000;2023-10-08T03:08:22;17.40;90.90
37974;DHT22;23796;51.458;7.000;2023-10-08T03:10:49;17.40;90.70
37974;DHT22;23796;51.458;7.000;2023-10-08T03:13:16;17.40;91.00
37974;DHT22;23796;51.458;7.000;2023-10-08T03:15:42;17.50;90.80
37974;DHT22;23796;51.458;7.000;2023-10-08T03:18:33;17.50;90.60
37974;DHT22;23796;51.458;7.000;2023-10-08T03:21:15;17.50;90.50
37974;DHT22;23796;51.458;7.000;2023-10-08T03:23:59;17.40;90.60
37974;DHT22;23796;51.458;7.000;2023-10-08T03:26:32;17.30;91.00
37974;DHT22;23796;51.458;7.000;2023-10-08T03:29:01;17.20;91.00
37974;DHT22;23796;51.458;7.000;2023-10-08T03:31:31;17.20;91.00
37974;DHT22;23796;51.458;7.000;2023-10-08T03:34:13;17.30;90.80
37974;DHT22;23796;51.458;7.000;2023-10-08T03:36:40;17.40;90.50
37974;DHT22;23796;51.458;7.000;2023-10-08T03:39:15;17.40;90.40
37974;DHT22;23796;51.458;7.000;2023-10-08T03:41:44;17.50;90.20
37974;DHT22;23796;51.458;7.000;2023-10-08T03:44:32;17.60;89.90
37974;DHT22;23796;51.458;7.000;2023-10-08T03:46:58;17.60;89.70
37974;DHT22;23796;51.458;7.000;2023-10-08T03:49:23;17.60;89.60
37974;DHT22;23796;51.458;7.000;2023-10-08T03:51:49;17.50;89.60
37974;DHT22;23796;51.458;7.000;2023-10-08T03:54:23;17.50;89.40
37974;DHT22;23796;51.458;7.000;2023-10-08T03:56:55;17.50;89.50
37974;DHT22;23796;51.458;7.000;2023-10-08T03:59:24;17.40;89.70
37974;DHT22;23796;51.458;7.000;2023-10-08T04:02:00;17.40;89.60
37974;DHT22;23796;51.458;7.000;2023-10-08T04:04:46;17.40;89.30
37974;DHT22;23796;51.458;7.000;2023-10-08T04:07:20;17.20;89.70
37974;DHT22;23796;51.458;7.000;2023-10-08T04:09:52;17.00;90.30
37974;DHT22;23796;51.458;7.000;2023-10-08T04:12:31;17.00;90.30
37974;DHT22;23796;51.458;7.000;2023-10-08T04:15:01;17.10;90.20
37974;DHT22;23796;51.458;7.000;2023-10-08T04:17:29;17.10;90.40
37974;DHT22;23796;51.458;7.000;2023-10-08T04:19:55;17.10;90.10
37974;DHT22;23796;51.458;7.000;2023-10-08T04:22:23;17.20;89.90
37974;DHT22;23796;51.458;7.000;2023-10-08T04:24:49;17.20;89.70
37974;DHT22;23796;51.458;7.000;2023-10-08T04:27:17;17.10;89.80
37974;DHT22;23796;51.458;7.000;2023-10-08T04:29:47;17.10;89.90
37974;DHT22;23796;51.458;7.000;2023-10-08T04:32:15;17.10;89.90
37974;DHT22;23796;51.458;7.000;2023-10-08T04:34:50;17.10;89.70
37974;DHT22;23796;51.458;7.000;2023-10-08T04:37:20;17.00;89.90
37974;DHT22;23796;51.458;7.000;2023-10-08T04:39:46;17.00;89.90
37974;DHT22;23796;51.458;7.000;2023-10-08T04:42:24;17.10;89.70
37974;DHT22;23796;51.458;7.000;2023-10-08T04:44:53;17.00;89.60
37974;DHT22;23796;51.458;7.000;2023-10-08T04:47:19;16.90;90.00
37974;DHT22;23796;51.458;7.000;2023-10-08T04:49:57;16.80;90.30
37974;DHT22;23796;51.458;7.000;2023-10-08T04:52:25;16.80;90.60
37974;DHT22;23796;51.458;7.000;2023-10-08T04:54:53;16.90;90.40
37974;DHT22;23796;51.458;7.000;2023-10-08T04:57:20;17.00;90.10
37974;DHT22;23796;51.458;7.000;2023-10-08T04:59:51;17.00;90.10
37974;DHT22;23796;51.458;7.000;2023-10-08T05:02:17;17.00;90.00
37974;DHT22;23796;51.458;7.000;2023-10-08T05:04:59;16.90;90.20
37974;DHT22;23796;51.458;7.000;2023-10-08T05:07:37;16.90;90.20
37974;DHT22;23796;51.458;7.000;2023-10-08T05:10:25;16.70;90.70
37974;DHT22;23796;51.458;7.000;2023-10-08T05:12:54;16.60;91.10
37974;DHT22;23796;51.458;7.000;2023-10-08T05:15:29;16.50;91.40
37974;DHT22;23796;51.458;7.000;2023-10-08T05:18:27;16.50;91.60
37974;DHT22;23796;51.458;7.000;2023-10-08T05:21:12;16.60;91.40
37974;DHT22;23796;51.458;7.000;2023-10-08T05:23:51;16.70;91.40
37974;DHT22;23796;51.458;7.000;2023-10-08T05:26:37;16.70;91.10
37974;DHT22;23796;51.458;7.000;2023-10-08T05:29:08;16.80;91.10
37974;DHT22;23796;51.458;7.000;2023-10-08T05:31:52;16.80;91.00
37974;DHT22;23796;51.458;7.000;2023-10-08T05:34:38;16.90;90.80
37974;DHT22;23796;51.458;7.000;2023-10-08T05:37:16;17.00;90.60
37974;DHT22;23796;51.458;7.000;2023-10-08T05:40:02;17.00;90.40
37974;DHT22;23796;51.458;7.000;2023-10-08T05:42:38;17.00;90.30
37974;DHT22;23796;51.458;7.000;2023-10-08T05:45:12;17.00;90.20
37974;DHT22;23796;51.458;7.000;2023-10-08T05:47:40;17.00;90.20
37974;DHT22;23796;51.458;7.000;2023-10-08T05:50:26;17.00;90.20
37974;DHT22;23796;51.458;7.000;2023-10-08T05:52:51;16.90;90.40
37974;DHT22;23796;51.458;7.000;2023-10-08T05:55:25;16.90;90.50
37974;DHT22;23796;51.458;7.000;2023-10-08T05:57:55;16.90;90.60
37974;DHT22;23796;51.458;7.000;2023-10-08T06:00:50;16.90;90.60
37974;DHT22;23796;51.458;7.000;2023-10-08T06:03:16;16.90;90.70
37974;DHT22;23796;51.458;7.000;2023-10-08T06:06:02;16.90;90.70
37974;DHT22;23796;51.458;7.000;2023-10-08T06:08:48;17.00;90.60
37974;DHT22;23796;51.458;7.000;2023-10-08T06:11:18;17.00;90.60
37974;DHT22;23796;51.458;7.000;2023-10-08T06:14:06;17.00;90.60
37974;DHT22;23796;51.458;7.000;2023-10-08T06:17:01;17.00;90.60
37974;DHT22;23796;51.458;7.000;2023-10-08T06:19:50;16.90;90.70
37974;DHT22;23796;51.458;7.000;2023-10-08T06:22:18;16.90;90.90
37974;DHT22;23796;51.458;7.000;2023-10-08T06:24:51;16.90;91.10
37974;DHT22;23796;51.458;7.000;2023-10-08T06:27:36;16.90;91.10
37974;DHT22;23796;51.458;7.000;2023-10-08T06:30:02;16.90;91.20
37974;DHT22;23796;51.458;7.000;2023-10-08T06:32:30;16.70;91.80
37974;DHT22;23796;51.458;7.000;2023-10-08T06:34:58;16.60;92.10
37974;DHT22;23796;51.458;7.000;2023-10-08T06:37:28;16.60;92.10
37974;DHT22;23796;51.458;7.000;2023-10-08T06:39:53;16.50;92.50
37974;DHT22;23796;51.458;7.000;2023-10-08T06:42:22;16.50;92.60
37974;DHT22;23796;51.458;7.000;2023-10-08T06:44:52;16.60;92.30
37974;DHT22;23796;51.458;7.000;2023-10-08T06:47:23;16.60;92.40
37974;DHT22;23796;51.458;7.000;2023-10-08T06:49:51;16.60;92.40
37974;DHT22;23796;51.458;7.000;2023-10-08T06:52:17;16.60;92.50
37974;DHT22;23796;51.458;7.000;2023-10-08T06:54:45;16.80;92.10
37974;DHT22;23796;51.458;7.000;2023-10-08T06:57:12;16.90;91.70
37974;DHT22;23796;51.458;7.000;2023-10-08T06:59:39;16.80;91.70
37974;DHT22;23796;51.458;7.000;2023-10-08T07:02:08;16.60;92.50
37974;DHT22;23796;51.458;7.000;2023-10-08T07:04:35;16.50;92.70
37974;DHT22;23796;51.458;7.000;2023-10-08T07:07:00;16.50;92.80
37974;DHT22;23796;51.458;7.000;2023-10-08T07:09:33;16.40;92.90
37974;DHT22;23796;51.458;7.000;2023-10-08T07:12:01;16.40;93.10
37974;DHT22;23796;51.458;7.000;2023-10-08T07:14:33;16.50;93.20
37974;DHT22;23796;51.458;7.000;2023-10-08T07:17:00;16.60;92.60
37974;DHT22;23796;51.458;7.000;2023-10-08T07:19:30;16.50;93.00
37974;DHT22;23796;51.458;7.000;2023-10-08T07:21:59;16.50;93.50
37974;DHT22;23796;51.458;7.000;2023-10-08T07:24:31;16.50;93.80
37974;DHT22;23796;51.458;7.000;2023-10-08T07:27:01;16.50;93.60
37974;DHT22;23796;51.458;7.000;2023-10-08T07:29:31;16.50;93.50
37974;DHT22;23796;51.458;7.000;2023-10-08T07:31:58;16.50;93.70
37974;DHT22;23796;51.458;7.000;2023-10-08T07:34:40;16.60;93.70
37974;DHT22;23796;51.458;7.000;2023-10-08T07:37:06;16.60;93.20
37974;DHT22;23796;51.458;7.000;2023-10-08T07:39:34;16.60;93.10
37974;DHT22;23796;51.458;7.000;2023-10-08T07:42:10;16.60;93.50
37974;DHT22;23796;51.458;7.000;2023-10-08T07:44:38;16.80;93.10
37974;DHT22;23796;51.458;7.000;2023-10-08T07:47:05;17.00;92.60
37974;DHT22;23796;51.458;7.000;2023-10-08T07:49:38;17.00;92.20
37974;DHT22;23796;51.458;7.000;2023-10-08T07:52:06;16.90;93.40
37974;DHT22;23796;51.458;7.000;2023-10-08T07:54:32;16.70;94.20
37974;DHT22;23796;51.458;7.000;2023-10-08T07:57:02;16.70;94.60
37974;DHT22;23796;51.458;7.000;2023-10-08T08:02:13;17.00;93.60
37974;DHT22;23796;51.458;7.000;2023-10-08T08:04:42;16.80;94.10
37974;DHT22;23796;51.458;7.000;2023-10-08T08:07:16;16.70;95.30
37974;DHT22;23796;51.458;7.000;2023-10-08T08:09:46;16.70;95.60
37974;DHT22;23796;51.458;7.000;2023-10-08T08:12:24;16.70;95.70
37974;DHT22;23796;51.458;7.000;2023-10-08T08:14:51;16.70;95.70
37974;DHT22;23796;51.458;7.000;2023-10-08T08:17:23;16.80;95.60
37974;DHT22;23796;51.458;7.000;2023-10-08T08:19:50;17.00;95.40
37974;DHT22;23796;51.458;7.000;2023-10-08T08:22:20;17.10;95.00
37974;DHT22;23796;51.458;7.000;2023-10-08T08:24:55;17.20;94.90
37974;DHT22;23796;51.458;7.000;2023-10-08T08:27:30;17.10;95.00
37974;DHT22;23796;51.458;7.000;2023-10-08T08:30:04;17.00;94.80
37974;DHT22;23796;51.458;7.000;2023-10-08T08:32:39;17.00;94.60
37974;DHT22;23796;51.458;7.000;2023-10-08T08:35:10;17.00;94.60
37974;DHT22;23796;51.458;7.000;2023-10-08T08:37:42;16.90;94.80
37974;DHT22;23796;51.458;7.000;2023-10-08T08:40:08;16.90;94.80
37974;DHT22;23796;51.458;7.000;2023-10-08T08:42:35;16.80;94.50
37974;DHT22;23796;51.458;7.000;2023-10-08T08:45:04;16.50;95.90
37974;DHT22;23796;51.458;7.000;2023-10-08T08:47:34;16.70;95.60
37974;DHT22;23796;51.458;7.000;2023-10-08T08:50:02;16.80;95.10
37974;DHT22;23796;51.458;7.000;2023-10-08T08:52:37;16.80;94.90
37974;DHT22;23796;51.458;7.000;2023-10-08T08:55:08;16.70;95.20
37974;DHT22;23796;51.458;7.000;2023-10-08T08:57:44;16.60;95.60
37974;DHT22;23796;51.458;7.000;2023-10-08T09:00:14;16.50;96.00
37974;DHT22;23796;51.458;7.000;2023-10-08T09:02:42;16.30;97.00
37974;DHT22;23796;51.458;7.000;2023-10-08T09:05:10;16.40;96.70
37974;DHT22;23796;51.458;7.000;2023-10-08T09:08:00;16.60;96.30
37974;DHT22;23796;51.458;7.000;2023-10-08T09:10:30;16.60;96.00
37974;DHT22;23796;51.458;7.000;2023-10-08T09:13:01;16.70;95.70
37974;DHT22;23796;51.458;7.000;2023-10-08T09:15:32;16.80;95.40
37974;DHT22;23796;51.458;7.000;2023-10-08T09:17:58;16.80;95.20
37974;DHT22;23796;51.458;7.000;2023-10-08T09:20:30;16.50;96.20
37974;DHT22;23796;51.458;7.000;2023-10-08T09:23:13;16.50;96.40
37974;DHT22;23796;51.458;7.000;2023-10-08T09:25:44;16.50;96.50
37974;DHT22;23796;51.458;7.000;2023-10-08T09:28:11;16.60;96.10
37974;DHT22;23796;51.458;7.000;2023-10-08T09:30:43;16.70;95.30
37974;DHT22;23796;51.458;7.000;2023-10-08T09:33:11;16.70;94.90
37974;DHT22;23796;51.458;7.000;2023-10-08T09:35:43;16.70;94.60
37974;DHT22;23796;51.458;7.000;2023-10-08T09:38:14;16.60;94.80
37974;DHT22;23796;51.458;7.000;2023-10-08T09:40:47;16.70;94.50
37974;DHT22;23796;51.458;7.000;2023-10-08T09:43:15;16.80;94.20
37974;DHT22;23796;51.458;7.000;2023-10-08T09:45:53;16.80;93.90
37974;DHT22;23796;51.458;7.000;2023-10-08T09:48:22;16.80;93.80
37974;DHT22;23796;51.458;7.000;2023-10-08T09:50:52;16.80;93.80
37974;DHT22;23796;51.458;7.000;2023-10-08T09:53:26;16.80;93.80
37974;DHT22;23796;51.458;7.000;2023-10-08T09:55:57;16.70;93.80
37974;DHT22;23796;51.458;7.000;2023-10-08T09:58:24;16.70;93.90
37974;DHT22;23796;51.458;7.000;2023-10-08T10:00:52;16.80;93.80
37974;DHT22;23796;51.458;7.000;2023-10-08T10:03:19;16.80;93.70
37974;DHT22;23796;51.458;7.000;2023-10-08T10:05:48;16.70;93.80
37974;DHT22;23796;51.458;7.000;2023-10-08T10:08:14;16.70;93.80
37974;DHT22;23796;51.458;7.000;2023-10-08T10:10:40;16.60;93.80
37974;DHT22;23796;51.458;7.000;2023-10-08T10:13:13;16.30;94.90
37974;DHT22;23796;51.458;7.000;2023-10-08T10:15:43;16.30;94.90
37974;DHT22;23796;51.458;7.000;2023-10-08T10:20:52;16.40;94.70
37974;DHT22;23796;51.458;7.000;2023-10-08T10:23:38;16.40;94.80
37974;DHT22;23796;51.458;7.000;2023-10-08T10:26:43;16.40;94.60
37974;DHT22;23796;51.458;7.000;2023-10-08T10:31:47;16.40;94.30
37974;DHT22;23796;51.458;7.000;2023-10-08T10:34:14;16.30;94.90
37974;DHT22;23796;51.458;7.000;2023-10-08T10:36:43;16.40;94.70
37974;DHT22;23796;51.458;7.000;2023-10-08T10:39:12;16.40;93.90
37974;DHT22;23796;51.458;7.000;2023-10-08T10:41:56;16.50;93.10
37974;DHT22;23796;51.458;7.000;2023-10-08T10:44:27;16.70;92.30
37974;DHT22;23796;51.458;7.000;2023-10-08T10:46:55;16.70;91.80
37974;DHT22;23796;51.458;7.000;2023-10-08T10:49:39;16.70;91.40
37974;DHT22;23796;51.458;7.000;2023-10-08T10:52:14;16.70;91.10
37974;DHT22;23796;51.458;7.000;2023-10-08T10:54:45;16.70;90.90
37974;DHT22;23796;51.458;7.000;2023-10-08T10:57:27;16.80;90.40
37974;DHT22;23796;51.458;7.000;2023-10-08T11:00:04;16.90;90.00
37974;DHT22;23796;51.458;7.000;2023-10-08T11:02:46;17.00;89.60
37974;DHT22;23796;51.458;7.000;2023-10-08T11:05:15;17.00;89.50
37974;DHT22;23796;51.458;7.000;2023-10-08T11:07:46;16.90;89.60
37974;DHT22;23796;51.458;7.000;2023-10-08T11:10:13;17.00;89.50
37974;DHT22;23796;51.458;7.000;2023-10-08T11:12:42;17.10;88.90
37974;DHT22;23796;51.458;7.000;2023-10-08T11:15:18;17.20;88.70
37974;DHT22;23796;51.458;7.000;2023-10-08T11:17:46;17.30;88.00
37974;DHT22;23796;51.458;7.000;2023-10-08T11:20:27;17.30;87.70
37974;DHT22;23796;51.458;7.000;2023-10-08T11:22:53;17.40;87.30
37974;DHT22;23796;51.458;7.000;2023-10-08T11:25:31;17.40;87.20
37974;DHT22;23796;51.458;7.000;2023-10-08T11:28:00;17.50;87.10
37974;DHT22;23796;51.458;7.000;2023-10-08T11:30:36;17.60;86.70
37974;DHT22;23796;51.458;7.000;2023-10-08T11:33:06;17.70;86.40
37974;DHT22;23796;51.458;7.000;2023-10-08T11:35:31;17.90;86.00
37974;DHT22;23796;51.458;7.000;2023-10-08T11:38:03;17.90;85.70
37974;DHT22;23796;51.458;7.000;2023-10-08T11:40:29;18.00;85.60
37974;DHT22;23796;51.458;7.000;2023-10-08T11:42:56;18.00;85.20
37974;DHT22;23796;51.458;7.000;2023-10-08T11:45:25;18.10;85.30
37974;DHT22;23796;51.458;7.000;2023-10-08T11:48:04;18.10;85.00
37974;DHT22;23796;51.458;7.000;2023-10-08T11:50:37;18.10;84.80
37974;DHT22;23796;51.458;7.000;2023-10-08T11:53:06;18.20;85.00
37974;DHT22;23796;51.458;7.000;2023-10-08T11:55:32;18.20;84.90
37974;DHT22;23796;51.458;7.000;2023-10-08T11:58:07;18.20;84.70
37974;DHT22;23796;51.458;7.000;2023-10-08T12:00:37;18.20;84.70
37974;DHT22;23796;51.458;7.000;2023-10-08T12:03:12;18.10;85.10
37974;DHT22;23796;51.458;7.000;2023-10-08T12:05:39;18.20;84.90
37974;DHT22;23796;51.458;7.000;2023-10-08T12:08:19;18.30;84.80
37974;DHT22;23796;51.458;7.000;2023-10-08T12:10:48;18.20;85.00
37974;DHT22;23796;51.458;7.000;2023-10-08T12:13:14;18.40;84.60
37974;DHT22;23796;51.458;7.000;2023-10-08T12:15:44;18.60;84.00
37974;DHT22;23796;51.458;7.000;2023-10-08T12:18:10;18.70;83.60
37974;DHT22;23796;51.458;7.000;2023-10-08T12:20:51;18.50;84.00
37974;DHT22;23796;51.458;7.000;2023-10-08T12:23:17;18.40;84.20
37974;DHT22;23796;51.458;7.000;2023-10-08T12:25:55;18.30;84.60
37974;DHT22;23796;51.458;7.000;2023-10-08T12:28:25;18.30;84.80
37974;DHT22;23796;51.458;7.000;2023-10-08T12:30:55;18.30;84.60
37974;DHT22;23796;51.458;7.000;2023-10-08T12:33:26;18.40;84.60
37974;DHT22;23796;51.458;7.000;2023-10-08T12:35:54;18.30;84.80
37974;DHT22;23796;51.458;7.000;2023-10-08T12:38:24;18.20;84.90
37974;DHT22;23796;51.458;7.000;2023-10-08T12:40:55;18.20;85.20
37974;DHT22;23796;51.458;7.000;2023-10-08T12:43:25;18.20;85.00
37974;DHT22;23796;51.458;7.000;2023-10-08T12:45:54;18.20;85.30
37974;DHT22;23796;51.458;7.000;2023-10-08T12:48:25;18.10;85.60
37974;DHT22;23796;51.458;7.000;2023-10-08T12:50:51;18.10;85.60
37974;DHT22;23796;51.458;7.000;2023-10-08T12:53:27;18.20;85.60
37974;DHT22;23796;51.458;7.000;2023-10-08T12:56:08;18.10;85.90
37974;DHT22;23796;51.458;7.000;2023-10-08T12:58:41;18.10;85.90
37974;DHT22;23796;51.458;7.000;2023-10-08T13:01:12;18.10;85.90
37974;DHT22;23796;51.458;7.000;2023-10-08T13:03:39;18.10;86.10
37974;DHT22;23796;51.458;7.000;2023-10-08T13:06:09;18.20;85.90
37974;DHT22;23796;51.458;7.000;2023-10-08T13:08:40;18.20;86.00
37974;DHT22;23796;51.458;7.000;2023-10-08T13:11:06;18.20;86.10
37974;DHT22;23796;51.458;7.000;2023-10-08T13:13:35;18.20;86.10
37974;DHT22;23796;51.458;7.000;2023-10-08T13:16:02;18.20;86.10
37974;DHT22;23796;51.458;7.000;2023-10-08T13:18:34;18.30;85.90
37974;DHT22;23796;51.458;7.000;2023-10-08T13:21:03;18.30;85.60
37974;DHT22;23796;51.458;7.000;2023-10-08T13:23:29;18.40;85.60
37974;DHT22;23796;51.458;7.000;2023-10-08T13:25:57;18.40;85.50
37974;DHT22;23796;51.458;7.000;2023-10-08T13:28:29;18.40;85.60
37974;DHT22;23796;51.458;7.000;2023-10-08T13:30:55;18.50;85.60
37974;DHT22;23796;51.458;7.000;2023-10-08T13:33:26;18.40;85.60
37974;DHT22;23796;51.458;7.000;2023-10-08T13:35:52;18.20;86.10
37974;DHT22;23796;51.458;7.000;2023-10-08T13:38:20;18.20;86.40
37974;DHT22;23796;51.458;7.000;2023-10-08T13:40:46;18.20;86.30
37974;DHT22;23796;51.458;7.000;2023-10-08T13:43:29;18.20;86.40
37974;DHT22;23796;51.458;7.000;2023-10-08T13:46:05;18.20;87.00
37974;DHT22;23796;51.458;7.000;2023-10-08T13:48:33;18.30;87.40
37974;DHT22;23796;51.458;7.000;2023-10-08T13:51:04;18.30;87.40
37974;DHT22;23796;51.458;7.000;2023-10-08T13:53:31;18.30;87.70
37974;DHT22;23796;51.458;7.000;2023-10-08T13:56:00;18.20;88.20
37974;DHT22;23796;51.458;7.000;2023-10-08T13:58:27;18.10;89.10
37974;DHT22;23796;51.458;7.000;2023-10-08T14:00:56;18.20;88.40
37974;DHT22;23796;51.458;7.000;2023-10-08T14:03:21;18.30;87.90
37974;DHT22;23796;51.458;7.000;2023-10-08T14:05:50;18.30;87.70
37974;DHT22;23796;51.458;7.000;2023-10-08T14:08:22;18.30;87.70
37974;DHT22;23796;51.458;7.000;2023-10-08T14:10:48;18.20;88.10
37974;DHT22;23796;51.458;7.000;2023-10-08T14:13:15;18.10;88.50
37974;DHT22;23796;51.458;7.000;2023-10-08T14:15:46;18.10;88.50
37974;DHT22;23796;51.458;7.000;2023-10-08T14:18:14;18.00;88.80
37974;DHT22;23796;51.458;7.000;2023-10-08T14:20:43;18.00;88.70
37974;DHT22;23796;51.458;7.000;2023-10-08T14:23:12;17.80;89.30
37974;DHT22;23796;51.458;7.000;2023-10-08T14:25:39;17.90;89.30
37974;DHT22;23796;51.458;7.000;2023-10-08T14:28:10;17.90;89.30
37974;DHT22;23796;51.458;7.000;2023-10-08T14:30:50;18.00;88.90
37974;DHT22;23796;51.458;7.000;2023-10-08T14:33:21;18.00;88.80
37974;DHT22;23796;51.458;7.000;2023-10-08T14:35:52;18.00;88.80
37974;DHT22;23796;51.458;7.000;2023-10-08T14:38:36;17.80;89.00
37974;DHT22;23796;51.458;7.000;2023-10-08T14:41:20;17.90;89.50
37974;DHT22;23796;51.458;7.000;2023-10-08T14:44:04;18.00;88.80
37974;DHT22;23796;51.458;7.000;2023-10-08T14:46:31;18.20;88.60
37974;DHT22;23796;51.458;7.000;2023-10-08T14:49:00;18.10;89.40
37974;DHT22;23796;51.458;7.000;2023-10-08T14:51:27;17.80;90.20
37974;DHT22;23796;51.458;7.000;2023-10-08T14:53:56;17.70;90.30
37974;DHT22;23796;51.458;7.000;2023-10-08T14:56:22;17.50;90.70
37974;DHT22;23796;51.458;7.000;2023-10-08T14:58:54;17.30;91.80
37974;DHT22;23796;51.458;7.000;2023-10-08T15:01:22;17.50;91.40
37974;DHT22;23796;51.458;7.000;2023-10-08T15:03:51;17.70;90.70
37974;DHT22;23796;51.458;7.000;2023-10-08T15:06:18;17.70;90.20
37974;DHT22;23796;51.458;7.000;2023-10-08T15:08:44;17.70;90.20
37974;DHT22;23796;51.458;7.000;2023-10-08T15:11:11;17.80;90.10
37974;DHT22;23796;51.458;7.000;2023-10-08T15:13:37;17.80;89.70
37974;DHT22;23796;51.458;7.000;2023-10-08T15:16:08;17.80;89.70
37974;DHT22;23796;51.458;7.000;2023-10-08T15:18:33;17.70;89.90
37974;DHT22;23796;51.458;7.000;2023-10-08T15:21:10;17.70;90.00
37974;DHT22;23796;51.458;7.000;2023-10-08T15:23:36;17.70;89.80
37974;DHT22;23796;51.458;7.000;2023-10-08T15:26:03;17.50;90.40
37974;DHT22;23796;51.458;7.000;2023-10-08T15:28:29;17.40;90.80
37974;DHT22;23796;51.458;7.000;2023-10-08T15:30:54;17.30;91.00
37974;DHT22;23796;51.458;7.000;2023-10-08T15:33:20;17.40;91.10
37974;DHT22;23796;51.458;7.000;2023-10-08T15:35:45;17.50;90.70
37974;DHT22;23796;51.458;7.000;2023-10-08T15:38:11;17.60;90.70
37974;DHT22;23796;51.458;7.000;2023-10-08T15:40:38;17.40;90.50
37974;DHT22;23796;51.458;7.000;2023-10-08T15:43:07;17.20;91.50
37974;DHT22;23796;51.458;7.000;2023-10-08T15:45:33;17.10;92.10
37974;DHT22;23796;51.458;7.000;2023-10-08T15:47:59;17.30;91.60
37974;DHT22;23796;51.458;7.000;2023-10-08T15:50:24;17.30;91.50
37974;DHT22;23796;51.458;7.000;2023-10-08T15:52:50;17.40;91.20
37974;DHT22;23796;51.458;7.000;2023-10-08T15:55:16;17.20;91.40
37974;DHT22;23796;51.458;7.000;2023-10-08T15:57:43;17.30;91.50
37974;DHT22;23796;51.458;7.000;2023-10-08T16:00:09;17.30;91.50
37974;DHT22;23796;51.458;7.000;2023-10-08T16:02:35;17.30;91.50
37974;DHT22;23796;51.458;7.000;2023-10-08T16:05:00;17.40;91.40